createdAt,value
2018-02-22T00:00:11.348Z,23.55
2018-02-22T00:02:42.418Z,28.33
2018-02-22T00:05:13.410Z,24.25
2018-02-22T00:07:44.408Z,22.55
2018-02-22T00:10:15.396Z,24.02
2018-02-22T00:12:46.384Z,23.33
2018-02-22T00:15:17.343Z,22.73
2018-02-22T00:17:48.325Z,26.43
2018-02-22T00:20:19.302Z,25.57
2018-02-22T00:22:50.264Z,26.33
2018-02-22T00:25:21.289Z,21.40
2018-02-22T00:27:52.271Z,27.40
2018-02-22T00:30:23.266Z,25.67
2018-02-22T00:32:54.228Z,27.40
2018-02-22T00:35:25.181Z,25.53
2018-02-22T00:37:56.174Z,23.27
2018-02-22T00:40:27.195Z,25.70
2018-02-22T00:42:58.191Z,26.37
2018-02-22T00:45:29.185Z,29.37
2018-02-22T00:48:00.203Z,24.40
2018-02-22T00:50:31.244Z,25.00
2018-02-22T00:53:02.268Z,25.20
2018-02-22T00:55:33.239Z,24.48
2018-02-22T00:58:04.257Z,29.23
2018-02-22T01:00:35.236Z,25.70
2018-02-22T01:03:06.267Z,23.63
2018-02-22T01:05:37.221Z,27.73
2018-02-22T01:08:08.272Z,30.53
2018-02-22T01:10:39.255Z,27.25
2018-02-22T01:13:10.237Z,26.73
2018-02-22T01:15:41.231Z,27.70
2018-02-22T01:18:12.229Z,27.65
2018-02-22T01:20:43.191Z,28.87
2018-02-22T01:23:14.192Z,32.73
2018-02-22T01:25:45.204Z,31.83
2018-02-22T01:28:16.195Z,26.12
2018-02-22T01:30:47.235Z,29.73
2018-02-22T01:33:18.201Z,28.02
2018-02-22T01:35:49.219Z,28.60
2018-02-22T01:38:20.650Z,29.85
2018-02-22T01:40:51.686Z,29.85
2018-02-22T01:43:22.712Z,27.50
2018-02-22T01:45:53.734Z,29.42
2018-02-22T01:48:24.745Z,28.80
2018-02-22T01:50:55.788Z,27.75
2018-02-22T01:53:26.760Z,29.77
2018-02-22T01:55:57.834Z,27.10
2018-02-22T01:58:28.831Z,32.92
2018-02-22T02:00:59.798Z,27.62
2018-02-22T02:03:30.797Z,34.60
2018-02-22T02:06:01.770Z,33.47
2018-02-22T02:08:32.772Z,34.37
2018-02-22T02:11:03.751Z,33.60
2018-02-22T02:13:34.731Z,31.00
2018-02-22T02:16:05.716Z,30.93
2018-02-22T02:18:36.758Z,30.17
2018-02-22T02:21:07.805Z,31.15
2018-02-22T02:23:38.831Z,36.53
2018-02-22T02:26:09.841Z,31.62
2018-02-22T02:28:40.827Z,33.30
2018-02-22T02:31:11.861Z,36.00
2018-02-22T02:33:42.880Z,32.05
2018-02-22T02:36:14.459Z,30.98
2018-02-22T02:38:45.412Z,33.13
2018-02-22T02:41:16.403Z,31.57
2018-02-22T02:43:47.358Z,33.83
2018-02-22T02:46:18.368Z,31.73
2018-02-22T02:48:49.362Z,32.25
2018-02-22T02:51:20.348Z,29.35
2018-02-22T02:53:51.345Z,31.43
2018-02-22T02:56:22.357Z,30.30
2018-02-22T02:58:53.351Z,31.58
2018-02-22T03:01:24.337Z,32.65
2018-02-22T03:03:55.337Z,30.10
2018-02-22T03:06:26.377Z,31.12
2018-02-22T03:08:57.389Z,29.55
2018-02-22T03:11:28.416Z,28.70
2018-02-22T03:13:59.419Z,34.63
2018-02-22T03:16:30.421Z,33.13
2018-02-22T03:19:01.384Z,34.78
2018-02-22T03:21:32.381Z,35.03
2018-02-22T03:24:03.340Z,31.33
2018-02-22T03:26:34.325Z,29.80
2018-02-22T03:29:05.375Z,35.63
2018-02-22T03:31:36.345Z,37.72
2018-02-22T03:34:07.389Z,31.60
2018-02-22T03:36:38.386Z,34.15
2018-02-22T03:39:09.363Z,34.22
2018-02-22T03:41:40.390Z,33.50
2018-02-22T03:44:11.343Z,28.12
2018-02-22T03:46:42.349Z,34.07
2018-02-22T03:49:13.328Z,37.00
2018-02-22T03:51:44.346Z,41.07
2018-02-22T03:54:15.339Z,29.80
2018-02-22T03:56:46.368Z,33.55
2018-02-22T03:59:17.380Z,36.95
2018-02-22T04:01:48.427Z,33.28
2018-02-22T04:04:19.418Z,33.38
2018-02-22T04:06:50.426Z,39.28
2018-02-22T04:09:21.440Z,33.78
2018-02-22T04:11:52.388Z,35.25
2018-02-22T04:14:23.395Z,36.63
2018-02-22T04:16:54.441Z,36.00
2018-02-22T04:19:25.439Z,40.80
2018-02-22T04:21:56.447Z,32.38
2018-02-22T04:24:27.380Z,36.28
2018-02-22T04:29:36.100Z,36.95
2018-02-22T04:32:07.114Z,36.95
2018-02-22T04:34:38.128Z,32.90
2018-02-22T04:37:09.131Z,29.55
2018-02-22T04:42:17.848Z,40.47
2018-02-22T04:44:48.874Z,34.33
2018-02-22T04:47:19.845Z,36.55
2018-02-22T04:49:50.829Z,36.73
2018-02-22T04:52:21.829Z,31.00
2018-02-22T04:54:52.814Z,38.92
2018-02-22T04:57:23.846Z,32.63
2018-02-22T04:59:55.761Z,31.87
2018-02-22T05:02:26.774Z,31.33
2018-02-22T05:04:57.744Z,37.17
2018-02-22T05:07:28.767Z,35.93
2018-02-22T05:09:59.753Z,32.25
2018-02-22T05:12:30.749Z,32.17
2018-02-22T05:15:01.767Z,39.03
2018-02-22T05:17:32.755Z,35.97
2018-02-22T05:20:03.788Z,28.90
2018-02-22T05:22:34.768Z,30.62
2018-02-22T05:25:05.792Z,36.60
2018-02-22T05:27:36.754Z,31.20
2018-02-22T05:30:07.756Z,29.03
2018-02-22T05:32:38.777Z,31.77
2018-02-22T05:35:11.469Z,37.60
2018-02-22T05:37:42.438Z,34.65
2018-02-22T05:40:13.454Z,38.57
2018-02-22T05:42:44.493Z,31.90
2018-02-22T05:45:15.568Z,39.65
2018-02-22T05:47:46.564Z,35.90
2018-02-22T05:50:17.555Z,33.53
2018-02-22T05:52:48.563Z,31.87
2018-02-22T05:55:19.584Z,32.00
2018-02-22T05:57:50.652Z,37.30
2018-02-22T06:00:21.670Z,33.20
2018-02-22T06:02:52.701Z,34.67
2018-02-22T06:05:23.754Z,27.15
2018-02-22T06:07:54.721Z,29.27
2018-02-22T06:10:25.744Z,32.03
2018-02-22T06:12:56.759Z,33.47
2018-02-22T06:15:27.789Z,35.80
2018-02-22T06:17:58.783Z,32.40
2018-02-22T06:20:29.806Z,35.58
2018-02-22T06:23:00.789Z,28.77
2018-02-22T06:25:31.799Z,29.33
2018-02-22T06:28:02.794Z,26.73
2018-02-22T06:30:33.856Z,21.25
2018-02-22T06:33:04.879Z,30.12
2018-02-22T06:35:35.883Z,28.52
2018-02-22T06:38:06.957Z,27.73
2018-02-22T06:40:37.940Z,32.15
2018-02-22T06:43:08.946Z,29.90
2018-02-22T06:45:39.939Z,31.23
2018-02-22T06:48:10.968Z,27.55
2018-02-22T06:50:41.965Z,30.73
2018-02-22T06:53:13.013Z,24.00
2018-02-22T06:55:43.963Z,23.90
2018-02-22T07:01:10.996Z,25.58
2018-02-22T07:03:41.960Z,30.65
2018-02-22T07:06:12.987Z,32.07
2018-02-22T07:08:44.022Z,29.40
2018-02-22T07:11:15.026Z,28.35
2018-02-22T07:13:46.038Z,30.73
2018-02-22T07:16:17.032Z,27.92
2018-02-22T07:18:48.036Z,30.08
2018-02-22T07:21:19.077Z,27.62
2018-02-22T07:23:50.080Z,29.12
2018-02-22T07:26:21.118Z,29.05
2018-02-22T07:28:52.140Z,31.27
2018-02-22T07:31:23.109Z,25.60
2018-02-22T07:33:54.191Z,22.07
2018-02-22T07:36:25.212Z,24.63
2018-02-22T07:38:56.420Z,23.90
2018-02-22T07:41:27.485Z,24.85
2018-02-22T07:43:58.485Z,29.10
2018-02-22T07:46:29.496Z,24.93
2018-02-22T07:49:00.462Z,26.20
2018-02-22T07:51:31.473Z,23.63
2018-02-22T07:54:02.456Z,27.02
2018-02-22T07:56:33.512Z,23.40
2018-02-22T07:59:04.498Z,23.48
2018-02-22T08:01:35.557Z,21.57
2018-02-22T08:04:06.540Z,24.02
2018-02-22T08:06:37.547Z,21.87
2018-02-22T08:09:08.520Z,23.58
2018-02-22T08:11:39.524Z,21.40
2018-02-22T08:14:10.522Z,22.60
2018-02-22T08:16:41.596Z,26.10
2018-02-22T08:19:12.572Z,22.08
2018-02-22T08:21:43.667Z,24.30
2018-02-22T08:24:14.651Z,21.55
2018-02-22T08:26:45.666Z,24.90
2018-02-22T08:29:16.684Z,24.13
2018-02-22T08:31:47.727Z,21.43
2018-02-22T08:34:18.701Z,22.80
2018-02-22T08:36:49.774Z,25.30
2018-02-22T08:39:20.736Z,21.87
2018-02-22T08:41:51.754Z,20.77
2018-02-22T08:44:22.803Z,21.50
2018-02-22T08:46:53.870Z,20.67
2018-02-22T08:49:24.896Z,22.13
2018-02-22T08:51:55.902Z,20.73
2018-02-22T08:54:26.923Z,18.30
2018-02-22T08:56:57.951Z,22.60
2018-02-22T08:59:29.002Z,21.13
2018-02-22T09:01:59.961Z,17.40
2018-02-22T09:04:31.001Z,20.77
2018-02-22T09:07:02.005Z,22.37
2018-02-22T09:09:33.008Z,23.63
2018-02-22T09:12:04.007Z,20.30
2018-02-22T09:14:35.035Z,17.57
2018-02-22T09:17:06.040Z,22.73
2018-02-22T09:19:37.127Z,21.70
2018-02-22T09:22:08.129Z,20.30
2018-02-22T09:24:39.179Z,21.47
2018-02-22T09:27:10.127Z,17.73
2018-02-22T09:29:41.130Z,23.87
2018-02-22T09:32:12.197Z,22.97
2018-02-22T09:34:43.193Z,20.83
2018-02-22T09:37:14.197Z,24.80
2018-02-22T09:39:45.142Z,20.77
2018-02-22T09:42:16.195Z,20.07
2018-02-22T09:44:47.201Z,23.00
2018-02-22T09:47:18.197Z,22.77
2018-02-22T09:49:49.191Z,24.20
2018-02-22T09:52:20.230Z,25.10
2018-02-22T09:54:51.457Z,21.77
2018-02-22T09:57:22.588Z,22.50
2018-02-22T09:59:53.554Z,20.33
2018-02-22T10:02:24.605Z,18.47
2018-02-22T10:04:55.614Z,22.97
2018-02-22T10:07:26.645Z,22.67
2018-02-22T10:09:57.637Z,20.40
2018-02-22T10:12:28.685Z,21.60
2018-02-22T10:14:59.672Z,23.10
2018-02-22T10:17:30.688Z,21.07
2018-02-22T10:20:01.743Z,20.67
2018-02-22T10:22:32.736Z,20.70
2018-02-22T10:25:03.771Z,20.90
2018-02-22T10:27:34.750Z,18.83
2018-02-22T10:30:05.780Z,21.33
2018-02-22T10:32:36.721Z,20.37
2018-02-22T10:35:07.762Z,20.50
2018-02-22T10:37:38.756Z,20.77
2018-02-22T10:40:09.790Z,18.83
2018-02-22T10:42:40.856Z,19.77
2018-02-22T10:45:11.845Z,21.70
2018-02-22T10:47:42.885Z,21.87
2018-02-22T10:50:14.647Z,20.67
2018-02-22T10:52:45.626Z,20.70
2018-02-22T10:55:16.647Z,21.00
2018-02-22T10:57:47.644Z,21.67
2018-02-22T11:00:20.703Z,21.27
2018-02-22T11:02:51.720Z,21.47
2018-02-22T11:05:22.794Z,23.40
2018-02-22T11:07:53.785Z,18.90
2018-02-22T11:10:24.787Z,21.47
2018-02-22T11:12:55.739Z,20.47
2018-02-22T11:15:26.735Z,18.30
2018-02-22T11:17:57.757Z,19.37
2018-02-22T11:20:28.807Z,20.23
2018-02-22T11:22:59.782Z,19.43
2018-02-22T11:25:30.869Z,17.53
2018-02-22T11:28:01.913Z,18.30
2018-02-22T11:30:32.950Z,17.63
2018-02-22T11:33:04.000Z,19.43
2018-02-22T11:35:34.985Z,20.70
2018-02-22T11:38:06.053Z,18.10
2018-02-22T11:40:37.041Z,20.67
2018-02-22T11:43:08.072Z,18.30
2018-02-22T11:45:39.245Z,19.10
2018-02-22T11:48:10.273Z,20.27
2018-02-22T11:50:41.256Z,19.90
2018-02-22T11:53:12.297Z,19.93
2018-02-22T11:55:43.325Z,19.07
2018-02-22T11:58:14.401Z,23.20
2018-02-22T12:00:45.387Z,18.50
2018-02-22T12:03:16.405Z,17.30
2018-02-22T12:05:47.396Z,19.27
2018-02-22T12:08:18.413Z,20.03
2018-02-22T12:10:49.396Z,19.77
2018-02-22T12:13:20.445Z,21.80
2018-02-22T12:15:51.467Z,19.27
2018-02-22T12:18:22.593Z,21.00
2018-02-22T12:20:53.586Z,18.87
2018-02-22T12:23:24.634Z,17.97
2018-02-22T12:25:55.610Z,23.27
2018-02-22T12:28:26.662Z,22.17
2018-02-22T12:30:57.661Z,20.30
2018-02-22T12:33:28.714Z,19.27
2018-02-22T12:35:59.670Z,19.10
2018-02-22T12:38:30.718Z,20.63
2018-02-22T12:41:01.725Z,19.87
2018-02-22T12:43:32.748Z,22.53
2018-02-22T12:46:03.775Z,18.80
2018-02-22T12:48:34.784Z,18.50
2018-02-22T12:51:05.790Z,20.03
2018-02-22T12:53:43.664Z,21.97
2018-02-22T12:56:14.684Z,21.17
2018-02-22T12:58:45.683Z,22.20
2018-02-22T13:01:16.709Z,18.17
2018-02-22T13:03:47.762Z,20.37
2018-02-22T13:06:18.757Z,20.73
2018-02-22T13:08:49.819Z,19.70
2018-02-22T13:11:20.771Z,20.23
2018-02-22T13:13:51.803Z,16.33
2018-02-22T13:16:22.815Z,21.60
2018-02-22T13:18:53.904Z,20.13
2018-02-22T13:21:24.899Z,21.87
2018-02-22T13:23:55.973Z,24.93
2018-02-22T13:26:26.939Z,22.40
2018-02-22T13:28:57.935Z,20.77
2018-02-22T13:31:28.928Z,16.73
2018-02-22T13:34:12.385Z,22.07
2018-02-22T13:36:43.390Z,20.23
2018-02-22T13:39:14.520Z,22.90
2018-02-22T13:41:45.494Z,21.33
2018-02-22T13:44:28.753Z,22.27
2018-02-22T13:46:59.748Z,20.83
2018-02-22T13:49:43.129Z,21.30
2018-02-22T13:52:14.133Z,20.70
2018-02-22T13:54:45.189Z,24.87
2018-02-22T13:57:17.081Z,20.70
2018-02-22T13:59:48.176Z,20.67
2018-02-22T14:02:25.074Z,20.20
2018-02-22T14:04:56.130Z,29.43
2018-02-22T14:07:27.100Z,22.07
2018-02-22T14:09:58.116Z,24.47
2018-02-22T14:12:29.080Z,21.80
2018-02-22T14:15:00.123Z,21.80
2018-02-22T14:17:31.175Z,17.67
2018-02-22T14:20:02.215Z,18.47
2018-02-22T14:22:33.235Z,21.03
2018-02-22T14:25:04.195Z,20.37
2018-02-22T14:27:35.226Z,19.67
2018-02-22T14:30:06.256Z,20.10
2018-02-22T14:32:37.243Z,20.40
2018-02-22T14:35:08.264Z,16.63
2018-02-22T14:37:39.329Z,21.77
2018-02-22T14:40:10.373Z,15.67
2018-02-22T14:42:41.346Z,17.87
2018-02-22T14:45:12.369Z,18.37
2018-02-22T14:47:43.344Z,19.90
2018-02-22T14:50:14.391Z,18.90
2018-02-22T14:52:45.373Z,22.07
2018-02-22T14:55:16.461Z,17.87
2018-02-22T14:57:47.547Z,16.90
2018-02-22T15:00:18.525Z,20.60
2018-02-22T15:02:49.537Z,19.00
2018-02-22T15:05:20.491Z,19.50
2018-02-22T15:07:51.699Z,20.87
2018-02-22T15:10:22.723Z,18.43
2018-02-22T15:12:53.724Z,17.57
2018-02-22T15:15:24.739Z,21.00
2018-02-22T15:17:55.730Z,18.07
2018-02-22T15:20:26.731Z,21.93
2018-02-22T15:22:57.809Z,19.70
2018-02-22T15:25:28.772Z,19.07
2018-02-22T15:27:59.775Z,16.80
2018-02-22T15:30:30.786Z,19.23
2018-02-22T15:33:01.830Z,19.43
2018-02-22T15:35:32.795Z,18.70
2018-02-22T15:38:03.867Z,17.43
2018-02-22T15:40:34.840Z,20.93
2018-02-22T15:43:05.890Z,21.73
2018-02-22T15:45:36.851Z,19.03
2018-02-22T15:48:07.891Z,17.30
2018-02-22T15:50:38.847Z,20.07
2018-02-22T15:53:09.965Z,19.40
2018-02-22T15:55:40.963Z,16.17
2018-02-22T15:58:12.005Z,20.07
2018-02-22T16:00:42.990Z,20.00
2018-02-22T16:03:14.000Z,18.50
2018-02-22T16:05:45.073Z,21.62
2018-02-22T16:08:16.064Z,21.60
2018-02-22T16:10:47.118Z,20.43
2018-02-22T16:13:18.365Z,19.85
2018-02-22T16:15:49.347Z,20.10
2018-02-22T16:18:20.419Z,19.23
2018-02-22T16:20:51.380Z,17.00
2018-02-22T16:23:22.399Z,18.10
2018-02-22T16:25:53.419Z,20.50
2018-02-22T16:28:24.441Z,16.33
2018-02-22T16:30:55.424Z,15.75
2018-02-22T16:33:26.441Z,17.87
2018-02-22T16:35:57.455Z,21.57
2018-02-22T16:38:28.489Z,16.02
2018-02-22T16:40:59.585Z,21.35
2018-02-22T16:43:30.555Z,19.27
2018-02-22T16:46:01.573Z,17.00
2018-02-22T16:48:32.564Z,21.05
2018-02-22T16:51:03.560Z,17.93
2018-02-22T16:53:34.537Z,17.07
2018-02-22T16:56:05.600Z,17.17
2018-02-22T16:58:36.609Z,16.30
2018-02-22T17:01:07.624Z,17.98
2018-02-22T17:03:38.608Z,17.40
2018-02-22T17:06:09.654Z,17.83
2018-02-22T17:08:40.642Z,18.48
2018-02-22T17:11:11.699Z,18.07
2018-02-22T17:13:42.655Z,10.82
2018-02-22T17:16:13.665Z,16.67
2018-02-22T17:18:44.624Z,16.77
2018-02-22T17:21:15.642Z,13.87
2018-02-22T17:23:46.626Z,16.12
2018-02-22T17:26:23.693Z,17.20
2018-02-22T17:29:00.885Z,14.82
2018-02-22T17:31:38.005Z,18.48
2018-02-22T17:34:09.020Z,18.60
2018-02-22T17:36:51.168Z,15.77
2018-02-22T17:42:27.119Z,14.40
2018-02-22T17:44:58.105Z,16.33
2018-02-22T17:47:29.167Z,17.67
2018-02-22T17:50:00.238Z,16.15
2018-02-22T17:52:31.326Z,19.50
2018-02-22T17:55:02.336Z,18.70
2018-02-22T17:57:33.385Z,17.10
2018-02-22T18:00:04.448Z,17.42
2018-02-22T18:02:36.507Z,13.85
2018-02-22T18:05:07.641Z,16.08
2018-02-22T18:07:38.655Z,14.80
2018-02-22T18:10:09.640Z,13.82
2018-02-22T18:12:40.711Z,17.47
2018-02-22T18:15:11.692Z,15.60
2018-02-22T18:17:42.744Z,15.07
2018-02-22T18:20:13.750Z,14.95
2018-02-22T18:22:44.827Z,15.05
2018-02-22T18:25:15.866Z,16.40
2018-02-22T18:27:46.909Z,17.60
2018-02-22T18:30:17.946Z,17.33
2018-02-22T18:32:48.958Z,20.33
2018-02-22T18:35:20.069Z,15.13
2018-02-22T18:37:59.995Z,16.27
2018-02-22T18:40:37.268Z,15.63
2018-02-22T18:43:14.340Z,15.80
2018-02-22T18:45:45.412Z,16.30
2018-02-22T18:48:16.396Z,18.20
2018-02-22T18:50:47.433Z,15.17
2018-02-22T18:53:18.442Z,15.43
2018-02-22T18:55:49.476Z,16.33
2018-02-22T18:58:20.476Z,13.25
2018-02-22T19:00:51.528Z,14.80
2018-02-22T19:03:22.491Z,13.30
2018-02-22T19:05:53.586Z,14.40
2018-02-22T19:08:24.592Z,14.77
2018-02-22T19:10:55.600Z,13.23
2018-02-22T19:13:26.592Z,18.02
2018-02-22T19:15:57.640Z,14.17
2018-02-22T19:18:35.633Z,15.90
2018-02-22T19:21:06.683Z,15.10
2018-02-22T19:23:37.734Z,16.73
2018-02-22T19:26:08.668Z,15.35
2018-02-22T19:28:39.702Z,15.40
2018-02-22T19:31:10.658Z,17.48
2018-02-22T19:33:41.648Z,17.63
2018-02-22T19:36:12.666Z,17.60
2018-02-22T19:38:43.685Z,16.15
2018-02-22T19:41:14.817Z,16.55
2018-02-22T19:43:45.846Z,16.95
2018-02-22T19:46:16.792Z,15.75
2018-02-22T19:48:47.811Z,15.33
2018-02-22T19:51:18.802Z,16.70
2018-02-22T19:53:49.851Z,18.43
2018-02-22T19:56:20.852Z,19.12
2018-02-22T19:58:51.906Z,20.58
2018-02-22T20:01:22.915Z,17.77
2018-02-22T20:03:53.987Z,20.52
2018-02-22T20:06:24.998Z,20.88
2018-02-22T20:08:56.001Z,18.73
2018-02-22T20:11:26.975Z,19.67
2018-02-22T20:13:57.983Z,20.40
2018-02-22T20:16:29.026Z,25.40
2018-02-22T20:19:00.024Z,22.73
2018-02-22T20:21:31.010Z,23.42
2018-02-22T20:24:02.159Z,24.00
2018-02-22T20:26:33.143Z,23.48
2018-02-22T20:29:04.165Z,25.65
2018-02-22T20:31:35.180Z,24.15
2018-02-22T20:34:06.218Z,26.23
2018-02-22T20:36:37.222Z,27.40
2018-02-22T20:39:08.347Z,28.40
2018-02-22T20:41:39.369Z,28.48
2018-02-22T20:44:10.417Z,28.15
2018-02-22T20:46:41.479Z,28.40
2018-02-22T20:49:12.501Z,28.17
2018-02-22T20:51:57.591Z,30.17
2018-02-22T20:54:28.684Z,30.10
2018-02-22T20:56:59.648Z,27.08
2018-02-22T20:59:30.695Z,28.27
2018-02-22T21:02:01.718Z,26.17
2018-02-22T21:04:32.811Z,27.85
2018-02-22T21:07:03.839Z,27.08
2018-02-22T21:09:34.873Z,27.70
2018-02-22T21:12:05.938Z,29.13
2018-02-22T21:14:36.910Z,33.60
2018-02-22T21:17:07.952Z,28.93
2018-02-22T21:19:38.920Z,33.85
2018-02-22T21:22:09.962Z,27.73
2018-02-22T21:24:40.923Z,29.12
2018-02-22T21:27:11.908Z,31.47
2018-02-22T21:29:42.898Z,29.67
2018-02-22T21:32:13.930Z,28.53
2018-02-22T21:34:44.945Z,31.60
2018-02-22T21:37:15.950Z,28.83
2018-02-22T21:39:46.884Z,28.98
2018-02-22T21:42:17.879Z,30.60
2018-02-22T21:44:48.927Z,33.30
2018-02-22T21:47:19.924Z,27.85
2018-02-22T21:49:50.885Z,28.57
2018-02-22T21:52:21.883Z,32.97
2018-02-22T21:54:52.915Z,29.80
2018-02-22T21:57:23.963Z,27.33
2018-02-22T21:59:54.963Z,29.58
2018-02-22T22:02:25.989Z,27.85
2018-02-22T22:04:56.993Z,27.48
2018-02-22T22:07:28.044Z,30.23
2018-02-22T22:09:59.053Z,28.85
2018-02-22T22:12:30.075Z,29.52
2018-02-22T22:15:01.106Z,28.50
2018-02-22T22:17:32.132Z,25.65
2018-02-22T22:20:03.162Z,28.90
2018-02-22T22:22:34.207Z,26.10
2018-02-22T22:25:05.163Z,29.52
2018-02-22T22:27:36.233Z,27.50
2018-02-22T22:30:07.255Z,26.50
2018-02-22T22:32:38.292Z,26.90
2018-02-22T22:35:09.267Z,24.87
2018-02-22T22:37:40.334Z,24.37
2018-02-22T22:40:11.322Z,26.87
2018-02-22T22:42:42.331Z,28.10
2018-02-22T22:45:13.333Z,27.95
2018-02-22T22:47:44.394Z,30.50
2018-02-22T22:50:15.359Z,24.70
2018-02-22T22:52:46.479Z,25.93
2018-02-22T22:55:17.481Z,29.37
2018-02-22T22:57:48.499Z,27.60
2018-02-22T23:00:21.424Z,29.00
2018-02-22T23:02:52.498Z,26.95
2018-02-22T23:05:23.469Z,27.52
2018-02-22T23:07:54.519Z,30.77
2018-02-22T23:10:25.851Z,29.15
2018-02-22T23:12:56.864Z,35.25
2018-02-22T23:15:27.881Z,26.23
2018-02-22T23:17:58.911Z,31.45
2018-02-22T23:20:29.926Z,29.52
2018-02-22T23:23:00.989Z,28.55
2018-02-22T23:25:31.961Z,27.65
2018-02-22T23:28:03.018Z,28.60
2018-02-22T23:30:34.016Z,32.33
2018-02-22T23:33:05.089Z,30.73
2018-02-22T23:35:36.134Z,24.30
2018-02-22T23:38:07.164Z,24.33
2018-02-22T23:40:52.117Z,24.70
2018-02-22T23:43:23.132Z,19.83
2018-02-22T23:45:54.214Z,19.30
2018-02-22T23:48:25.207Z,18.37
2018-02-22T23:50:56.233Z,16.17
2018-02-22T23:53:27.214Z,20.35
2018-02-22T23:55:58.228Z,14.30
2018-02-22T23:58:29.207Z,16.67
